createdAt,value
2019-01-24T00:01:52.479Z,72.35
2019-01-24T00:04:23.963Z,72.13
2019-01-24T00:06:55.396Z,72.42
2019-01-24T00:09:26.794Z,72.40
2019-01-24T00:11:58.283Z,72.25
2019-01-24T00:14:29.748Z,72.07
2019-01-24T00:17:01.282Z,72.08
2019-01-24T00:19:32.703Z,71.98
2019-01-24T00:22:05.456Z,71.81
2019-01-24T00:24:36.716Z,71.74
2019-01-24T00:29:39.517Z,71.18
2019-01-24T00:32:11.167Z,71.61
2019-01-24T00:34:42.755Z,71.34
2019-01-24T00:37:14.303Z,71.80
2019-01-24T00:39:45.754Z,72.22
2019-01-24T00:42:18.256Z,72.41
2019-01-24T00:44:49.648Z,72.79
2019-01-24T00:47:21.084Z,72.77
2019-01-24T00:49:52.432Z,72.93
2019-01-24T00:52:23.838Z,73.06
2019-01-24T00:54:55.310Z,72.75
2019-01-24T00:57:26.757Z,72.35
2019-01-24T00:59:58.105Z,72.84
2019-01-24T01:02:29.483Z,72.14
2019-01-24T01:05:01.074Z,72.36
2019-01-24T01:07:33.529Z,72.28
2019-01-24T01:10:07.612Z,72.40
2019-01-24T01:12:39.090Z,72.40
2019-01-24T01:15:17.000Z,72.17
2019-01-24T01:17:49.033Z,71.75
2019-01-24T01:20:22.604Z,72.12
2019-01-24T01:22:54.160Z,72.29
2019-01-24T01:25:25.579Z,72.25
2019-01-24T01:27:57.059Z,72.12
2019-01-24T01:30:28.592Z,71.94
2019-01-24T01:33:00.293Z,71.73
2019-01-24T01:35:31.883Z,71.50
2019-01-24T01:38:03.352Z,71.73
2019-01-24T01:40:34.763Z,71.47
2019-01-24T01:43:06.434Z,71.45
2019-01-24T01:45:37.865Z,71.57
2019-01-24T01:48:09.419Z,71.84
2019-01-24T01:50:40.882Z,71.97
2019-01-24T01:53:12.356Z,71.84
2019-01-24T01:55:43.881Z,71.57
2019-01-24T01:58:15.353Z,71.27
2019-01-24T02:00:46.808Z,70.90
2019-01-24T02:03:18.263Z,71.10
2019-01-24T02:05:49.802Z,70.88
2019-01-24T02:08:21.187Z,70.94
2019-01-24T02:10:52.606Z,71.14
2019-01-24T02:13:24.103Z,71.11
2019-01-24T02:15:55.524Z,71.05
2019-01-24T02:18:28.034Z,70.61
2019-01-24T02:20:59.378Z,70.49
2019-01-24T02:23:30.861Z,70.81
2019-01-24T02:26:02.354Z,70.32
2019-01-24T02:28:33.704Z,70.09
2019-01-24T02:31:05.208Z,70.36
2019-01-24T02:33:36.659Z,69.88
2019-01-24T02:36:08.075Z,69.93
2019-01-24T02:38:39.409Z,70.24
2019-01-24T02:41:10.681Z,69.95
2019-01-24T02:43:42.105Z,69.68
2019-01-24T02:46:13.597Z,70.06
2019-01-24T02:48:45.187Z,69.85
2019-01-24T02:51:16.458Z,69.94
2019-01-24T02:53:47.840Z,70.02
2019-01-24T02:56:19.204Z,69.85
2019-01-24T02:58:50.630Z,69.71
2019-01-24T03:01:22.061Z,69.72
2019-01-24T03:03:53.490Z,69.49
2019-01-24T03:06:24.988Z,70.29
2019-01-24T03:08:56.707Z,70.50
2019-01-24T03:11:28.300Z,70.02
2019-01-24T03:14:00.062Z,70.38
2019-01-24T03:16:31.505Z,70.16
2019-01-24T03:19:03.457Z,70.14
2019-01-24T03:21:34.920Z,69.87
2019-01-24T03:24:06.446Z,70.18
2019-01-24T03:26:38.074Z,69.97
2019-01-24T03:29:09.621Z,69.60
2019-01-24T03:31:41.223Z,69.45
2019-01-24T03:34:15.527Z,69.48
2019-01-24T03:36:46.952Z,69.27
2019-01-24T03:39:18.531Z,69.49
2019-01-24T03:41:50.066Z,69.22
2019-01-24T03:44:21.786Z,69.26
2019-01-24T03:46:53.427Z,69.31
2019-01-24T03:49:25.030Z,68.95
2019-01-24T03:51:57.523Z,69.05
2019-01-24T03:54:29.157Z,69.08
2019-01-24T03:57:00.899Z,69.20
2019-01-24T03:59:32.602Z,69.05
2019-01-24T04:02:04.174Z,69.46
2019-01-24T04:04:35.781Z,69.51
2019-01-24T04:07:07.253Z,69.64
2019-01-24T04:09:38.647Z,69.90
2019-01-24T04:12:09.921Z,69.72
2019-01-24T04:14:41.377Z,69.86
2019-01-24T04:17:12.796Z,69.85
2019-01-24T04:19:44.299Z,70.14
2019-01-24T04:22:15.595Z,70.03
2019-01-24T04:24:47.215Z,70.04
2019-01-24T04:27:18.768Z,70.05
2019-01-24T04:29:50.324Z,70.29
2019-01-24T04:32:21.866Z,70.32
2019-01-24T04:34:53.363Z,70.31
2019-01-24T04:37:27.540Z,70.52
2019-01-24T04:39:58.900Z,70.25
2019-01-24T04:42:30.263Z,70.38
2019-01-24T04:45:01.709Z,70.38
2019-01-24T04:47:34.164Z,70.54
2019-01-24T04:50:10.440Z,70.10
2019-01-24T04:52:42.061Z,70.30
2019-01-24T04:55:16.462Z,70.36
2019-01-24T04:57:48.138Z,70.36
2019-01-24T05:00:28.359Z,70.55
2019-01-24T05:02:59.876Z,70.50
2019-01-24T05:05:31.283Z,70.28
2019-01-24T05:08:02.794Z,70.36
2019-01-24T05:10:35.791Z,70.29
2019-01-24T05:13:07.107Z,70.64
2019-01-24T05:15:38.840Z,70.75
2019-01-24T05:18:10.218Z,70.64
2019-01-24T05:20:41.681Z,70.94
2019-01-24T05:23:13.460Z,71.24
2019-01-24T05:25:44.826Z,71.32
2019-01-24T05:28:17.997Z,71.19
2019-01-24T05:30:50.353Z,71.46
2019-01-24T05:33:21.697Z,71.62
2019-01-24T05:35:54.180Z,71.45
2019-01-24T05:38:25.653Z,71.57
2019-01-24T05:40:57.463Z,71.61
2019-01-24T05:43:28.854Z,71.75
2019-01-24T05:46:00.425Z,71.87
2019-01-24T05:48:31.766Z,72.02
2019-01-24T05:51:09.171Z,71.12
2019-01-24T05:53:40.546Z,70.45
2019-01-24T05:56:12.026Z,70.22
2019-01-24T05:58:43.351Z,70.35
2019-01-24T06:01:15.491Z,69.16
2019-01-24T06:03:46.797Z,67.90
2019-01-24T06:06:18.298Z,66.60
2019-01-24T06:08:56.252Z,66.24
2019-01-24T06:11:27.767Z,66.38
2019-01-24T06:13:59.029Z,66.59
2019-01-24T06:16:30.361Z,66.66
2019-01-24T06:19:01.877Z,66.35
2019-01-24T06:21:33.327Z,66.66
2019-01-24T06:24:04.816Z,66.68
2019-01-24T06:26:42.165Z,66.94
2019-01-24T06:29:24.016Z,67.39
2019-01-24T06:31:57.284Z,67.25
2019-01-24T06:34:31.404Z,67.21
2019-01-24T06:37:04.664Z,67.64
2019-01-24T06:39:37.428Z,67.97
2019-01-24T06:42:08.990Z,67.97
2019-01-24T06:44:42.205Z,67.70
2019-01-24T06:47:16.588Z,67.53
2019-01-24T06:49:48.154Z,67.44
2019-01-24T06:52:19.559Z,67.43
2019-01-24T06:54:55.252Z,67.59
2019-01-24T06:57:34.401Z,67.77
2019-01-24T07:00:20.258Z,67.76
2019-01-24T07:02:51.834Z,67.79
2019-01-24T07:05:23.434Z,68.03
2019-01-24T07:07:56.576Z,68.40
2019-01-24T07:10:28.793Z,68.91
2019-01-24T07:13:06.333Z,69.66
2019-01-24T07:15:40.682Z,69.86
2019-01-24T07:18:12.375Z,70.27
2019-01-24T07:20:43.962Z,70.58
2019-01-24T07:23:23.182Z,70.60
2019-01-24T07:25:54.732Z,70.98
2019-01-24T07:28:26.457Z,70.59
2019-01-24T07:30:57.852Z,70.25
2019-01-24T07:33:29.436Z,69.88
2019-01-24T07:36:02.276Z,70.14
2019-01-24T07:38:34.049Z,69.81
2019-01-24T07:41:05.565Z,69.70
2019-01-24T07:43:37.055Z,69.24
2019-01-24T07:46:08.571Z,69.87
2019-01-24T07:48:40.246Z,70.41
2019-01-24T07:51:11.816Z,70.52
2019-01-24T07:53:43.196Z,70.43
2019-01-24T07:56:14.698Z,70.28
2019-01-24T07:58:46.232Z,70.62
2019-01-24T08:01:17.848Z,70.13
2019-01-24T08:03:49.414Z,70.40
2019-01-24T08:06:20.748Z,70.14
2019-01-24T08:08:53.206Z,70.01
2019-01-24T08:11:24.638Z,70.23
2019-01-24T08:13:56.162Z,70.49
2019-01-24T08:16:27.531Z,70.38
2019-01-24T08:19:00.254Z,70.45
2019-01-24T08:21:32.268Z,70.51
2019-01-24T08:24:03.731Z,70.19
2019-01-24T08:26:36.258Z,70.15
2019-01-24T08:29:07.791Z,70.37
2019-01-24T08:31:39.243Z,70.53
2019-01-24T08:34:10.788Z,70.74
2019-01-24T08:36:42.321Z,70.83
2019-01-24T08:39:13.728Z,70.71
2019-01-24T08:41:45.140Z,70.88
2019-01-24T08:44:16.691Z,70.71
2019-01-24T08:46:48.151Z,70.75
2019-01-24T08:49:19.640Z,71.24
2019-01-24T08:51:54.127Z,71.13
2019-01-24T08:54:25.578Z,71.04
2019-01-24T08:56:56.928Z,71.42
2019-01-24T08:59:29.734Z,71.64
2019-01-24T09:02:01.342Z,71.75
2019-01-24T09:04:33.815Z,71.44
2019-01-24T09:07:05.493Z,71.69
2019-01-24T09:09:36.994Z,71.31
2019-01-24T09:12:08.423Z,71.61
2019-01-24T09:14:42.805Z,71.27
2019-01-24T09:17:14.287Z,71.65
2019-01-24T09:19:45.678Z,72.13
2019-01-24T09:22:17.638Z,72.27
2019-01-24T09:24:49.032Z,72.51
2019-01-24T09:27:24.672Z,71.89
2019-01-24T09:29:58.679Z,72.27
2019-01-24T09:32:30.190Z,71.35
2019-01-24T09:35:03.228Z,71.38
2019-01-24T09:37:36.455Z,71.28
2019-01-24T09:40:14.727Z,71.86
2019-01-24T09:42:47.789Z,71.98
2019-01-24T09:45:24.780Z,71.70
2019-01-24T09:48:02.758Z,71.39
2019-01-24T09:50:36.090Z,70.75
2019-01-24T09:53:07.608Z,70.91
2019-01-24T09:55:39.417Z,71.12
2019-01-24T09:58:12.381Z,69.78
2019-01-24T10:00:45.261Z,70.06
2019-01-24T10:03:16.780Z,70.07
2019-01-24T10:05:48.546Z,70.33
2019-01-24T10:08:20.811Z,70.28
2019-01-24T10:10:52.414Z,69.90
2019-01-24T10:13:23.909Z,70.22
2019-01-24T10:15:55.399Z,70.31
2019-01-24T10:18:29.209Z,70.24
2019-01-24T10:21:00.730Z,70.02
2019-01-24T10:23:32.085Z,69.39
2019-01-24T10:26:03.756Z,68.99
2019-01-24T10:28:35.214Z,69.50
2019-01-24T10:31:08.195Z,69.36
2019-01-24T10:33:39.712Z,69.46
2019-01-24T10:36:11.145Z,68.85
2019-01-24T10:38:42.417Z,68.51
2019-01-24T10:41:13.940Z,68.31
2019-01-24T10:43:45.290Z,68.74
2019-01-24T10:46:16.871Z,69.13
2019-01-24T10:48:48.286Z,68.66
2019-01-24T10:51:19.642Z,67.73
2019-01-24T10:53:51.101Z,68.11
2019-01-24T10:56:25.548Z,68.07
2019-01-24T10:58:57.339Z,68.70
2019-01-24T11:01:28.768Z,68.50
2019-01-24T11:04:00.123Z,67.54
2019-01-24T11:06:31.603Z,66.86
2019-01-24T11:09:04.831Z,66.81
2019-01-24T11:11:37.301Z,67.07
2019-01-24T11:14:08.812Z,66.54
2019-01-24T11:16:42.811Z,65.82
2019-01-24T11:19:14.190Z,66.53
2019-01-24T11:21:45.719Z,67.07
2019-01-24T11:24:17.088Z,66.25
2019-01-24T11:26:48.510Z,66.28
2019-01-24T11:29:19.938Z,66.52
2019-01-24T11:31:51.411Z,65.78
2019-01-24T11:34:22.820Z,66.33
2019-01-24T11:37:00.751Z,66.50
2019-01-24T11:39:32.235Z,66.35
2019-01-24T11:42:03.717Z,66.03
2019-01-24T11:44:36.750Z,66.04
2019-01-24T11:47:08.238Z,65.59
2019-01-24T11:49:40.601Z,65.65
2019-01-24T11:52:11.948Z,65.90
2019-01-24T11:54:43.242Z,65.90
2019-01-24T11:57:16.264Z,66.12
2019-01-24T11:59:47.783Z,66.26
2019-01-24T12:02:19.722Z,66.26
2019-01-24T12:04:51.176Z,66.38
2019-01-24T12:07:23.660Z,66.65
2019-01-24T12:09:59.671Z,66.46
2019-01-24T12:12:32.125Z,66.17
2019-01-24T12:15:06.853Z,66.65
2019-01-24T12:17:41.500Z,66.09
2019-01-24T12:20:19.876Z,66.96
2019-01-24T12:22:51.734Z,66.86
2019-01-24T12:25:23.562Z,66.59
2019-01-24T12:27:55.166Z,66.34
2019-01-24T12:30:33.074Z,66.59
2019-01-24T12:33:05.835Z,66.95
2019-01-24T12:35:42.120Z,67.11
2019-01-24T12:38:13.688Z,67.06
2019-01-24T12:40:45.191Z,67.58
2019-01-24T12:43:17.013Z,66.80
2019-01-24T12:45:48.714Z,67.05
2019-01-24T12:48:27.599Z,66.61
2019-01-24T12:51:01.151Z,67.24
2019-01-24T12:53:33.081Z,66.99
2019-01-24T12:56:07.563Z,66.41
2019-01-24T12:58:40.805Z,66.15
2019-01-24T13:01:13.243Z,66.44
2019-01-24T13:03:46.297Z,66.68
2019-01-24T13:06:17.579Z,66.36
2019-01-24T13:08:51.486Z,66.87
2019-01-24T13:11:23.689Z,66.82
2019-01-24T13:13:55.256Z,66.70
2019-01-24T13:16:27.753Z,66.37
2019-01-24T13:18:59.146Z,66.64
2019-01-24T13:21:45.344Z,66.86
2019-01-24T13:24:23.376Z,66.59
2019-01-24T13:27:00.550Z,66.74
2019-01-24T13:29:33.621Z,66.48
2019-01-24T13:32:09.885Z,65.99
2019-01-24T13:34:41.425Z,66.04
2019-01-24T13:37:12.897Z,65.97
2019-01-24T13:39:44.291Z,65.98
2019-01-24T13:42:16.701Z,65.96
2019-01-24T13:44:48.150Z,66.00
2019-01-24T13:47:21.163Z,66.20
2019-01-24T13:50:28.797Z,66.82
2019-01-24T13:53:00.283Z,66.82
2019-01-24T13:55:31.836Z,66.67
2019-01-24T13:58:03.419Z,66.79
2019-01-24T14:00:36.788Z,66.52
2019-01-24T14:03:21.160Z,66.55
2019-01-24T14:05:52.887Z,66.67
2019-01-24T14:08:24.288Z,67.23
2019-01-24T14:10:55.710Z,66.94
2019-01-24T14:13:27.005Z,67.18
2019-01-24T14:15:58.490Z,67.16
2019-01-24T14:18:30.041Z,66.92
2019-01-24T14:21:01.642Z,67.00
2019-01-24T14:23:33.039Z,67.15
2019-01-24T14:26:04.554Z,66.98
2019-01-24T14:28:37.177Z,67.45
2019-01-24T14:31:13.455Z,67.43
2019-01-24T14:33:45.188Z,67.12
2019-01-24T14:36:16.675Z,67.22
2019-01-24T14:38:48.130Z,67.37
2019-01-24T14:41:19.655Z,67.71
2019-01-24T14:43:51.994Z,68.19
2019-01-24T14:46:23.384Z,68.12
2019-01-24T14:48:54.872Z,68.18
2019-01-24T14:51:27.347Z,68.12
2019-01-24T14:53:58.911Z,67.91
2019-01-24T14:56:30.426Z,67.80
2019-01-24T14:59:01.962Z,68.15
2019-01-24T15:01:35.166Z,68.14
2019-01-24T15:04:09.156Z,68.89
2019-01-24T15:06:42.272Z,68.36
2019-01-24T15:09:13.652Z,68.58
2019-01-24T15:11:45.031Z,68.43
2019-01-24T15:14:16.417Z,68.02
2019-01-24T15:16:52.028Z,68.16
2019-01-24T15:19:26.583Z,68.48
2019-01-24T15:21:58.019Z,68.28
2019-01-24T15:24:29.334Z,68.24
2019-01-24T15:27:00.872Z,68.33
2019-01-24T15:29:32.336Z,67.86
2019-01-24T15:32:03.723Z,67.95
2019-01-24T15:34:37.779Z,67.78
2019-01-24T15:37:13.538Z,67.75
2019-01-24T15:42:40.403Z,68.13
2019-01-24T15:45:15.622Z,68.16
2019-01-24T15:47:47.306Z,68.23
2019-01-24T15:50:21.481Z,68.40
2019-01-24T15:52:53.473Z,68.36
2019-01-24T15:55:38.226Z,68.28
2019-01-24T15:58:23.667Z,68.60
2019-01-24T16:01:06.113Z,68.91
2019-01-24T16:06:48.973Z,68.93
2019-01-24T16:09:25.561Z,69.74
2019-01-24T16:12:02.627Z,70.23
2019-01-24T16:14:36.262Z,70.02
2019-01-24T16:17:10.136Z,69.83
2019-01-24T16:19:41.870Z,70.58
2019-01-24T16:22:18.104Z,70.32
2019-01-24T16:24:50.686Z,70.81
2019-01-24T16:27:24.862Z,71.14
2019-01-24T16:29:58.146Z,70.47
2019-01-24T16:32:29.551Z,70.57
2019-01-24T16:35:04.470Z,70.63
2019-01-24T16:38:09.281Z,70.96
2019-01-24T16:40:41.149Z,70.41
2019-01-24T16:43:17.087Z,71.34
2019-01-24T16:45:49.659Z,71.29
2019-01-24T16:48:21.429Z,71.33
2019-01-24T16:51:00.711Z,71.63
2019-01-24T16:53:44.356Z,71.74
2019-01-24T16:56:22.036Z,71.43
2019-01-24T16:58:53.499Z,71.13
2019-01-24T17:01:27.032Z,71.13
2019-01-24T17:04:07.073Z,71.39
2019-01-24T17:06:38.654Z,71.46
2019-01-24T17:09:25.177Z,71.02
2019-01-24T17:11:59.136Z,71.44
2019-01-24T17:14:30.515Z,71.05
2019-01-24T17:17:07.089Z,72.12
2019-01-24T17:19:38.465Z,71.53
2019-01-24T17:22:10.002Z,72.32
2019-01-24T17:24:41.324Z,72.67
2019-01-24T17:27:12.626Z,72.74
2019-01-24T17:29:44.056Z,72.56
2019-01-24T17:32:15.899Z,72.47
2019-01-24T17:34:47.233Z,72.05
2019-01-24T17:37:18.646Z,72.10
2019-01-24T17:39:50.176Z,72.32
2019-01-24T17:42:21.510Z,72.15
2019-01-24T17:44:52.968Z,72.02
2019-01-24T17:47:24.628Z,71.41
2019-01-24T17:49:56.915Z,72.57
2019-01-24T17:52:28.900Z,71.85
2019-01-24T17:55:00.840Z,71.60
2019-01-24T17:57:32.434Z,71.80
2019-01-24T18:00:05.544Z,71.76
2019-01-24T18:02:37.564Z,72.13
2019-01-24T18:05:10.566Z,72.52
2019-01-24T18:07:42.309Z,73.07
2019-01-24T18:10:23.751Z,72.92
2019-01-24T18:12:55.661Z,72.67
2019-01-24T18:15:33.606Z,72.75
2019-01-24T18:18:18.399Z,72.82
2019-01-24T18:21:05.228Z,72.79
2019-01-24T18:23:28.442Z,73.06
2019-01-24T18:25:59.998Z,73.13
2019-01-24T18:28:31.547Z,72.96
2019-01-24T18:31:03.050Z,73.40
2019-01-24T18:33:34.701Z,73.53
2019-01-24T18:36:06.527Z,73.07
2019-01-24T18:38:38.603Z,73.03
2019-01-24T18:41:10.323Z,73.12
2019-01-24T18:43:42.024Z,73.14
2019-01-24T18:46:13.443Z,73.53
2019-01-24T18:48:44.827Z,73.38
2019-01-24T18:51:16.300Z,73.63
2019-01-24T18:53:47.849Z,73.95
2019-01-24T18:56:19.277Z,74.08
2019-01-24T18:58:50.688Z,73.89
2019-01-24T19:01:22.149Z,73.76
2019-01-24T19:03:54.679Z,73.69
2019-01-24T19:06:29.167Z,73.50
2019-01-24T19:09:02.511Z,73.49
2019-01-24T19:11:35.419Z,73.25
2019-01-24T19:14:07.153Z,73.40
2019-01-24T19:16:39.401Z,73.08
2019-01-24T19:19:11.091Z,72.70
2019-01-24T19:21:43.188Z,72.78
2019-01-24T19:24:14.605Z,72.99
2019-01-24T19:26:46.150Z,72.48
2019-01-24T19:29:17.555Z,71.95
2019-01-24T19:31:48.979Z,71.76
2019-01-24T19:34:20.500Z,71.42
2019-01-24T19:36:52.004Z,70.85
2019-01-24T19:39:23.683Z,70.92
2019-01-24T19:42:06.738Z,71.12
2019-01-24T19:44:34.847Z,70.00
2019-01-24T19:47:09.453Z,70.14
2019-01-24T19:49:41.468Z,69.83
2019-01-24T19:52:13.227Z,69.05
2019-01-24T19:54:48.275Z,69.20
2019-01-24T19:57:25.490Z,69.22
2019-01-24T20:00:10.364Z,68.93
2019-01-24T20:03:00.476Z,68.64
2019-01-24T20:05:39.552Z,68.60
2019-01-24T20:09:09.299Z,68.69
2019-01-24T20:11:05.964Z,69.05
2019-01-24T20:13:43.444Z,69.52
2019-01-24T20:16:20.475Z,68.71
2019-01-24T20:18:54.557Z,68.97
2019-01-24T20:21:26.841Z,68.98
2019-01-24T20:23:58.515Z,69.12
2019-01-24T20:26:31.779Z,69.52
2019-01-24T20:29:03.172Z,69.31
2019-01-24T20:31:37.230Z,68.56
2019-01-24T20:34:08.873Z,68.31
2019-01-24T20:36:42.103Z,68.50
2019-01-24T20:39:15.081Z,68.01
2019-01-24T20:41:46.670Z,67.74
2019-01-24T20:44:18.186Z,67.91
2019-01-24T20:46:49.703Z,68.38
2019-01-24T20:49:21.028Z,67.64
2019-01-24T20:51:52.401Z,68.17
2019-01-24T20:54:23.767Z,67.78
2019-01-24T20:56:55.180Z,67.55
2019-01-24T20:59:26.425Z,67.20
2019-01-24T21:01:58.579Z,66.75
2019-01-24T21:04:29.834Z,67.14
2019-01-24T21:07:01.299Z,66.51
2019-01-24T21:09:32.551Z,66.54
2019-01-24T21:12:04.074Z,66.94
2019-01-24T21:14:35.533Z,66.83
2019-01-24T21:17:06.971Z,66.66
2019-01-24T21:19:38.313Z,66.59
2019-01-24T21:22:09.782Z,67.87
2019-01-24T21:24:41.047Z,66.83
2019-01-24T21:27:12.372Z,66.10
2019-01-24T21:29:43.727Z,66.32
2019-01-24T21:32:15.393Z,66.55
2019-01-24T21:34:46.668Z,66.32
2019-01-24T21:37:18.144Z,66.87
2019-01-24T21:39:49.610Z,66.34
2019-01-24T21:42:21.522Z,65.29
2019-01-24T21:44:52.933Z,64.18
2019-01-24T21:47:25.040Z,64.99
2019-01-24T21:49:56.444Z,64.30
2019-01-24T21:52:28.417Z,63.79
2019-01-24T21:55:00.737Z,64.39
2019-01-24T21:57:32.268Z,64.99
2019-01-24T22:00:05.306Z,65.58
2019-01-24T22:02:36.781Z,65.45
2019-01-24T22:05:11.975Z,65.46
2019-01-24T22:07:43.935Z,65.26
2019-01-24T22:10:28.013Z,65.89
2019-01-24T22:12:59.695Z,65.29
2019-01-24T22:15:31.884Z,65.28
2019-01-24T22:18:03.415Z,65.47
2019-01-24T22:20:34.938Z,65.89
2019-01-24T22:23:06.667Z,66.19
2019-01-24T22:25:38.026Z,66.54
2019-01-24T22:28:09.556Z,66.88
2019-01-24T22:30:44.240Z,67.00
2019-01-24T22:33:15.847Z,66.91
2019-01-24T22:35:47.405Z,66.92
2019-01-24T22:38:18.829Z,66.84
2019-01-24T22:40:50.328Z,66.70
2019-01-24T22:43:21.763Z,66.16
2019-01-24T22:45:53.194Z,65.50
2019-01-24T22:48:24.547Z,65.54
2019-01-24T22:50:55.854Z,65.37
2019-01-24T22:53:27.335Z,64.03
2019-01-24T22:55:58.855Z,64.17
2019-01-24T22:58:30.242Z,63.95
2019-01-24T23:01:16.080Z,64.01
2019-01-24T23:03:49.225Z,64.02
2019-01-24T23:06:20.712Z,63.75
2019-01-24T23:08:52.280Z,64.25
2019-01-24T23:11:23.704Z,63.63
2019-01-24T23:13:55.144Z,64.16
2019-01-24T23:16:26.510Z,64.88
2019-01-24T23:18:57.842Z,65.28
2019-01-24T23:21:29.296Z,65.43
2019-01-24T23:24:00.701Z,66.36
2019-01-24T23:26:32.048Z,66.39
2019-01-24T23:29:03.487Z,66.78
2019-01-24T23:31:34.902Z,66.96
2019-01-24T23:34:06.760Z,66.96
2019-01-24T23:36:38.076Z,67.08
2019-01-24T23:39:09.969Z,66.87
2019-01-24T23:41:41.305Z,66.87
2019-01-24T23:44:12.693Z,66.43
2019-01-24T23:46:44.068Z,66.28
2019-01-24T23:49:15.439Z,66.18
2019-01-24T23:51:46.683Z,66.22
2019-01-24T23:54:18.063Z,66.48
2019-01-24T23:56:49.332Z,66.63
2019-01-24T23:59:20.858Z,66.52
